Time;durP1;ratioP1;P1;durP2;ratioP2;P2;SDS_P1;SDS_P2;PMS_P1;PMS_P2;Temp;Humidity;BMP_temperature;BMP_pressure;BME280_temperature;BME280_humidity;BME280_pressure;Samples;Min_cycle;Max_cycle;Signal;HPM_P1;HPM_P2
2022/03/14 00:02:14;;;;;;;5.97;2.63;;;;;;;;;;5017401;28;20061;-78
2022/03/14 00:04:40;;;;;;;12.68;3.58;;;;;;;;;;4995536;28;20157;-78
2022/03/14 00:07:06;;;;;;;5.93;2.50;;;;;;;;;;4997609;28;20022;-78
2022/03/14 00:09:33;;;;;;;4.47;2.42;;;;;;;;;;5019837;28;20030;-77
2022/03/14 00:11:59;;;;;;;6.22;3.20;;;;;;;;;;5020943;28;20088;-77
2022/03/14 00:14:25;;;;;;;7.55;2.67;;;;;;;;;;5016959;28;20096;-80
2022/03/14 00:16:52;;;;;;;8.65;3.47;;;;;;;;;;5006639;28;20061;-77
2022/03/14 00:19:20;;;;;;;7.25;2.90;;;;;;;;;;5018073;28;20061;-79
2022/03/14 00:21:46;;;;;;;6.07;2.85;;;;;;;;;;5015439;28;20065;-77
2022/03/14 00:24:13;;;;;;;9.07;2.70;;;;;;;;;;5016327;28;20033;-77
2022/03/14 00:26:39;;;;;;;6.35;3.10;;;;;;;;;;5016926;28;20034;-77
2022/03/14 00:29:06;;;;;;;11.80;3.20;;;;;;;;;;5016473;28;20037;-77
2022/03/14 00:31:32;;;;;;;7.43;2.95;;;;;;;;;;5017312;28;20472;-79
2022/03/14 00:33:58;;;;;;;9.02;2.67;;;;;;;;;;5018765;28;20033;-79
2022/03/14 00:36:25;;;;;;;9.00;4.38;;;;;;;;;;5018697;28;20026;-79
2022/03/14 00:38:51;;;;;;;10.75;3.90;;;;;;;;;;5016358;28;20054;-76
2022/03/14 00:41:18;;;;;;;8.75;2.80;;;;;;;;;;5016254;28;20034;-76
2022/03/14 00:43:45;;;;;;;8.95;2.88;;;;;;;;;;5016207;28;20037;-77
2022/03/14 00:46:11;;;;;;;7.40;2.88;;;;;;;;;;5013740;28;20030;-77
2022/03/14 00:48:37;;;;;;;8.25;3.53;;;;;;;;;;5013524;28;20061;-78
2022/03/14 00:51:05;;;;;;;6.28;3.22;;;;;;;;;;5015549;28;20073;-80
2022/03/14 00:53:31;;;;;;;7.78;3.00;;;;;;;;;;5016441;28;20040;-77
2022/03/14 00:56:01;;;;;;;8.35;2.83;;;;;;;;;;5021478;28;20381;-79
2022/03/14 00:58:29;;;;;;;6.28;3.00;;;;;;;;;;5019560;28;20037;-77
2022/03/14 01:00:55;;;;;;;10.65;2.83;;;;;;;;;;5016283;28;20038;-78
2022/03/14 01:03:21;;;;;;;7.55;2.83;;;;;;;;;;5001767;28;20034;-77
2022/03/14 01:05:47;;;;;;;6.03;2.45;;;;;;;;;;5018526;28;20018;-79
2022/03/14 01:08:13;;;;;;;11.40;2.58;;;;;;;;;;5015167;28;20086;-78
2022/03/14 01:10:39;;;;;;;9.90;2.92;;;;;;;;;;5017151;28;20026;-79
2022/03/14 01:13:06;;;;;;;8.88;3.65;;;;;;;;;;5013345;28;20388;-79
2022/03/14 01:15:32;;;;;;;8.27;3.33;;;;;;;;;;4996114;28;20108;-78
2022/03/14 01:18:01;;;;;;;6.75;2.80;;;;;;;;;;5012596;28;20025;-77
2022/03/14 01:20:27;;;;;;;7.85;2.70;;;;;;;;;;4994769;28;20033;-77
2022/03/14 01:22:56;;;;;;;6.57;2.65;;;;;;;;;;5010113;28;20030;-79
2022/03/14 01:25:24;;;;;;;10.57;3.45;;;;;;;;;;5010274;28;20037;-78
2022/03/14 01:27:50;;;;;;;8.73;3.13;;;;;;;;;;5013587;28;20049;-76
2022/03/14 01:30:17;;;;;;;8.23;3.00;;;;;;;;;;5014639;28;20080;-77
2022/03/14 01:32:43;;;;;;;7.15;3.05;;;;;;;;;;5019324;28;20038;-79
2022/03/14 01:35:09;;;;;;;8.32;2.75;;;;;;;;;;5020292;28;20492;-76
2022/03/14 01:37:35;;;;;;;9.63;3.28;;;;;;;;;;5019327;28;20026;-77
2022/03/14 01:40:01;;;;;;;6.20;2.92;;;;;;;;;;5018146;28;20447;-77
2022/03/14 01:42:28;;;;;;;5.78;2.55;;;;;;;;;;5018706;28;20091;-77
2022/03/14 01:44:54;;;;;;;10.30;4.20;;;;;;;;;;5005821;28;20037;-76
2022/03/14 01:47:20;;;;;;;7.88;3.25;;;;;;;;;;5020956;28;20120;-76
2022/03/14 01:49:48;;;;;;;8.30;2.95;;;;;;;;;;5019048;28;20030;-78
2022/03/14 01:52:14;;;;;;;8.65;3.35;;;;;;;;;;5016705;28;20576;-79
2022/03/14 01:54:44;;;;;;;6.53;2.90;;;;;;;;;;5011576;28;20030;-77
2022/03/14 01:57:13;;;;;;;8.88;2.60;;;;;;;;;;4996908;28;20036;-76
2022/03/14 01:59:39;;;;;;;5.95;2.42;;;;;;;;;;5021047;28;20018;-78
2022/03/14 02:02:06;;;;;;;7.78;2.85;;;;;;;;;;5019761;28;20038;-77
2022/03/14 02:04:33;;;;;;;10.15;3.33;;;;;;;;;;5018928;28;20029;-77
2022/03/14 02:06:59;;;;;;;10.32;3.38;;;;;;;;;;5019038;28;20026;-78
2022/03/14 02:09:25;;;;;;;6.18;2.92;;;;;;;;;;5014979;28;20033;-77
2022/03/14 02:11:57;;;;;;;6.55;2.83;;;;;;;;;;5018194;28;20018;-76
2022/03/14 02:14:24;;;;;;;7.10;2.58;;;;;;;;;;5020848;28;20022;-78
2022/03/14 02:16:51;;;;;;;8.70;3.55;;;;;;;;;;5019535;28;20022;-77
2022/03/14 02:19:18;;;;;;;6.50;2.40;;;;;;;;;;5018410;28;20064;-78
2022/03/14 02:21:44;;;;;;;13.40;4.93;;;;;;;;;;5000525;28;20108;-78
2022/03/14 02:24:11;;;;;;;11.32;2.97;;;;;;;;;;4997752;28;20380;-75
2022/03/14 02:26:41;;;;;;;7.68;2.92;;;;;;;;;;5015698;28;20118;-79
2022/03/14 02:29:07;;;;;;;12.15;3.25;;;;;;;;;;5004803;28;20081;-78
2022/03/14 02:31:36;;;;;;;8.35;2.40;;;;;;;;;;5013986;28;20018;-79
2022/03/14 02:34:06;;;;;;;8.15;2.55;;;;;;;;;;5016251;28;20025;-76
2022/03/14 02:36:32;;;;;;;10.25;3.15;;;;;;;;;;5017664;28;20392;-78
2022/03/14 02:38:58;;;;;;;4.80;2.67;;;;;;;;;;5016444;28;20496;-76
2022/03/14 02:41:25;;;;;;;13.98;2.80;;;;;;;;;;5009392;28;20041;-77
2022/03/14 02:43:51;;;;;;;8.82;3.00;;;;;;;;;;5017086;28;20034;-79
2022/03/14 02:46:17;;;;;;;11.10;3.03;;;;;;;;;;5016084;28;20143;-77
2022/03/14 02:48:43;;;;;;;6.47;2.72;;;;;;;;;;5014731;28;20070;-77
2022/03/14 02:51:09;;;;;;;4.60;2.30;;;;;;;;;;5015882;28;20290;-77
2022/03/14 02:53:36;;;;;;;6.78;2.70;;;;;;;;;;5013315;28;20026;-78
2022/03/14 02:56:02;;;;;;;5.43;2.30;;;;;;;;;;5014740;28;20049;-77
2022/03/14 02:58:30;;;;;;;9.93;2.97;;;;;;;;;;5017004;28;20111;-78
2022/03/14 03:00:57;;;;;;;10.38;2.55;;;;;;;;;;5014290;28;20030;-78
2022/03/14 03:03:23;;;;;;;6.68;2.30;;;;;;;;;;5014995;28;20013;-79
2022/03/14 03:05:49;;;;;;;6.78;2.45;;;;;;;;;;5013347;28;20160;-78
2022/03/14 03:08:16;;;;;;;7.63;2.80;;;;;;;;;;5013592;28;20090;-79
2022/03/14 03:10:42;;;;;;;9.93;2.60;;;;;;;;;;5015217;28;20117;-78
2022/03/14 03:13:11;;;;;;;11.93;3.95;;;;;;;;;;5014877;28;20030;-77
2022/03/14 03:15:37;;;;;;;9.20;2.88;;;;;;;;;;5015716;28;20029;-77
2022/03/14 03:18:04;;;;;;;10.35;2.58;;;;;;;;;;5017352;28;20612;-78
2022/03/14 03:20:30;;;;;;;5.47;2.65;;;;;;;;;;5012349;28;20089;-78
2022/03/14 03:22:56;;;;;;;8.35;2.42;;;;;;;;;;5010953;28;20381;-77
2022/03/14 03:25:22;;;;;;;5.25;3.08;;;;;;;;;;5011172;28;20608;-76
2022/03/14 03:27:49;;;;;;;10.35;3.03;;;;;;;;;;5010419;28;20034;-77
2022/03/14 03:30:15;;;;;;;11.20;2.88;;;;;;;;;;5008376;28;20038;-77
2022/03/14 03:32:41;;;;;;;6.97;2.78;;;;;;;;;;5010911;28;21287;-78
2022/03/14 03:35:08;;;;;;;9.80;3.65;;;;;;;;;;4993880;28;20060;-76
2022/03/14 03:37:34;;;;;;;10.60;2.95;;;;;;;;;;5009635;28;20026;-78
2022/03/14 03:40:00;;;;;;;6.55;2.55;;;;;;;;;;5010789;28;20038;-78
2022/03/14 03:42:26;;;;;;;10.30;3.00;;;;;;;;;;5011361;28;20026;-76
2022/03/14 03:44:53;;;;;;;8.13;3.15;;;;;;;;;;5012054;28;20396;-78
2022/03/14 03:47:19;;;;;;;10.40;2.63;;;;;;;;;;4991566;28;20049;-78
2022/03/14 03:49:45;;;;;;;7.25;2.88;;;;;;;;;;4995689;28;20068;-77
2022/03/14 03:52:11;;;;;;;6.72;2.65;;;;;;;;;;5016656;28;20380;-77
2022/03/14 03:54:38;;;;;;;8.55;3.13;;;;;;;;;;5015374;28;20030;-76
2022/03/14 03:57:06;;;;;;;7.13;3.17;;;;;;;;;;5012972;28;20057;-78
2022/03/14 03:59:32;;;;;;;5.22;2.42;;;;;;;;;;5009250;28;20145;-77
2022/03/14 04:01:59;;;;;;;9.98;3.38;;;;;;;;;;5016935;28;20026;-76
2022/03/14 04:04:26;;;;;;;9.13;3.10;;;;;;;;;;5017794;28;20022;-79
2022/03/14 04:06:56;;;;;;;8.70;2.70;;;;;;;;;;5016215;28;20045;-78
2022/03/14 04:09:22;;;;;;;8.05;2.90;;;;;;;;;;5017846;28;20396;-77
2022/03/14 04:11:49;;;;;;;11.38;2.88;;;;;;;;;;5001426;28;20022;-76
2022/03/14 04:14:15;;;;;;;6.70;2.78;;;;;;;;;;5016135;28;20029;-78
2022/03/14 04:16:42;;;;;;;11.60;2.83;;;;;;;;;;5015866;28;20030;-77
2022/03/14 04:19:08;;;;;;;5.35;2.15;;;;;;;;;;5014267;28;20022;-76
2022/03/14 04:21:36;;;;;;;7.85;3.55;;;;;;;;;;5013325;28;20054;-79
2022/03/14 04:24:06;;;;;;;8.73;2.60;;;;;;;;;;5011544;28;20526;-78
2022/03/14 04:26:33;;;;;;;9.43;2.85;;;;;;;;;;5014968;28;20133;-78
2022/03/14 04:29:00;;;;;;;5.20;2.50;;;;;;;;;;5017487;28;20041;-76
2022/03/14 04:31:26;;;;;;;5.22;2.13;;;;;;;;;;5019554;28;20427;-79
2022/03/14 04:33:52;;;;;;;8.75;3.58;;;;;;;;;;5017543;28;20018;-78
2022/03/14 04:36:18;;;;;;;8.57;2.60;;;;;;;;;;5016484;28;20029;-77
2022/03/14 04:38:44;;;;;;;5.65;2.45;;;;;;;;;;5016069;28;20058;-79
2022/03/14 04:41:10;;;;;;;8.55;3.05;;;;;;;;;;5014831;28;20030;-78
2022/03/14 04:43:37;;;;;;;8.95;3.10;;;;;;;;;;5013584;28;20029;-79
2022/03/14 04:46:03;;;;;;;8.52;2.78;;;;;;;;;;4999092;28;20502;-79
2022/03/14 04:48:30;;;;;;;6.57;2.15;;;;;;;;;;5007320;28;20056;-78
2022/03/14 04:50:56;;;;;;;7.70;3.28;;;;;;;;;;5021966;28;20076;-79
2022/03/14 04:53:22;;;;;;;6.53;2.30;;;;;;;;;;5018601;28;20095;-77
2022/03/14 04:55:49;;;;;;;7.55;2.60;;;;;;;;;;5003506;28;20494;-79
2022/03/14 04:58:15;;;;;;;6.13;2.35;;;;;;;;;;5011807;28;20022;-78
2022/03/14 05:00:42;;;;;;;8.23;2.65;;;;;;;;;;4999515;28;20514;-79
2022/03/14 05:03:08;;;;;;;8.13;2.47;;;;;;;;;;5016551;28;20083;-78
2022/03/14 05:05:34;;;;;;;14.38;3.78;;;;;;;;;;5017415;28;20502;-78
2022/03/14 05:08:00;;;;;;;7.13;2.60;;;;;;;;;;5016696;28;20486;-77
2022/03/14 05:10:27;;;;;;;12.00;3.92;;;;;;;;;;5017883;28;20078;-77
2022/03/14 05:12:53;;;;;;;7.65;2.63;;;;;;;;;;5014946;28;20044;-79
2022/03/14 05:15:19;;;;;;;9.43;2.78;;;;;;;;;;5014089;28;20049;-79
2022/03/14 05:17:46;;;;;;;7.47;2.90;;;;;;;;;;4985461;28;20117;-78
2022/03/14 05:20:12;;;;;;;9.30;2.50;;;;;;;;;;5014185;28;20586;-78
2022/03/14 05:22:48;;;;;;;6.63;3.28;;;;;;;;;;5011595;28;20037;-77
2022/03/14 05:25:15;;;;;;;7.63;2.33;;;;;;;;;;5016905;28;20029;-77
2022/03/14 05:27:41;;;;;;;6.35;2.35;;;;;;;;;;5017858;28;20053;-79
2022/03/14 05:30:10;;;;;;;8.55;2.40;;;;;;;;;;5017995;28;20025;-77
2022/03/14 05:32:37;;;;;;;7.50;3.83;;;;;;;;;;4999862;28;20649;-77
2022/03/14 05:35:03;;;;;;;9.00;2.25;;;;;;;;;;5014314;28;20404;-78
2022/03/14 05:37:30;;;;;;;7.47;2.53;;;;;;;;;;4990917;28;20116;-77
2022/03/14 05:39:56;;;;;;;7.40;2.33;;;;;;;;;;5012625;28;20041;-77
2022/03/14 05:42:23;;;;;;;7.45;2.70;;;;;;;;;;5012522;28;20040;-77
2022/03/14 05:44:49;;;;;;;11.13;2.72;;;;;;;;;;4996453;28;20033;-76
2022/03/14 05:47:15;;;;;;;8.70;2.63;;;;;;;;;;4994145;28;20026;-77
2022/03/14 05:49:41;;;;;;;11.02;2.72;;;;;;;;;;4994195;28;20068;-76
2022/03/14 05:52:08;;;;;;;11.55;4.18;;;;;;;;;;5012474;28;20085;-77
2022/03/14 05:54:34;;;;;;;6.97;2.30;;;;;;;;;;5013400;28;20025;-80
2022/03/14 05:57:00;;;;;;;9.75;2.67;;;;;;;;;;5011654;28;20057;-76
2022/03/14 05:59:27;;;;;;;6.88;2.45;;;;;;;;;;5000828;28;20468;-75
2022/03/14 06:01:53;;;;;;;11.30;3.13;;;;;;;;;;5012208;28;20037;-77
2022/03/14 06:04:19;;;;;;;6.68;2.45;;;;;;;;;;5013133;28;20078;-76
2022/03/14 06:06:47;;;;;;;10.48;3.53;;;;;;;;;;5014532;28;20034;-78
2022/03/14 06:09:13;;;;;;;8.60;2.78;;;;;;;;;;5011449;28;20479;-77
2022/03/14 06:11:39;;;;;;;7.93;3.55;;;;;;;;;;4999386;28;20044;-78
2022/03/14 06:14:06;;;;;;;11.93;3.35;;;;;;;;;;5014719;28;20528;-77
2022/03/14 06:16:32;;;;;;;10.05;3.28;;;;;;;;;;5011768;28;20034;-76
2022/03/14 06:18:58;;;;;;;6.90;2.35;;;;;;;;;;5013022;28;20078;-77
2022/03/14 06:21:24;;;;;;;9.10;2.75;;;;;;;;;;5013376;28;20030;-76
2022/03/14 06:23:50;;;;;;;6.78;2.60;;;;;;;;;;5012872;28;20448;-77
2022/03/14 06:26:17;;;;;;;5.13;2.30;;;;;;;;;;5011302;28;20029;-76
2022/03/14 06:28:43;;;;;;;6.30;2.80;;;;;;;;;;4995490;28;20037;-77
2022/03/14 06:31:11;;;;;;;11.60;3.33;;;;;;;;;;5011699;28;20024;-78
2022/03/14 06:33:37;;;;;;;8.00;2.40;;;;;;;;;;5011630;28;20390;-76
2022/03/14 06:36:04;;;;;;;10.40;2.53;;;;;;;;;;5009732;28;20030;-77
2022/03/14 06:38:32;;;;;;;10.20;2.60;;;;;;;;;;4995575;28;20073;-77
2022/03/14 06:40:58;;;;;;;5.63;2.63;;;;;;;;;;5012852;28;20120;-76
2022/03/14 06:43:25;;;;;;;9.50;2.45;;;;;;;;;;5011193;28;20029;-77
2022/03/14 06:45:51;;;;;;;5.07;2.10;;;;;;;;;;4995321;28;20026;-77
2022/03/14 06:48:18;;;;;;;4.45;2.30;;;;;;;;;;5013974;28;20107;-77
2022/03/14 06:50:45;;;;;;;7.13;3.90;;;;;;;;;;5011732;28;20029;-77
2022/03/14 06:53:11;;;;;;;6.18;2.38;;;;;;;;;;5014561;28;20083;-76
2022/03/14 06:55:37;;;;;;;5.25;3.13;;;;;;;;;;4996270;28;20022;-76
2022/03/14 06:58:03;;;;;;;6.05;2.17;;;;;;;;;;5013356;28;20077;-76
2022/03/14 07:00:29;;;;;;;7.95;2.83;;;;;;;;;;5013505;28;20057;-78
2022/03/14 07:02:55;;;;;;;8.23;2.30;;;;;;;;;;5009480;28;20104;-76
2022/03/14 07:05:24;;;;;;;7.57;2.20;;;;;;;;;;4995946;28;20132;-76
2022/03/14 07:07:53;;;;;;;8.27;2.55;;;;;;;;;;5012874;28;20080;-77
2022/03/14 07:10:19;;;;;;;6.20;2.40;;;;;;;;;;5011173;28;20030;-78
2022/03/14 07:12:48;;;;;;;9.93;3.65;;;;;;;;;;4992281;28;20037;-77
2022/03/14 07:15:16;;;;;;;6.25;2.85;;;;;;;;;;5009444;28;20026;-79
2022/03/14 07:17:43;;;;;;;7.13;2.25;;;;;;;;;;5012931;28;20479;-78
2022/03/14 07:20:10;;;;;;;13.13;2.88;;;;;;;;;;5012802;28;20156;-78
2022/03/14 07:22:49;;;;;;;9.93;2.72;;;;;;;;;;5013108;28;20022;-76
2022/03/14 07:25:18;;;;;;;5.35;2.25;;;;;;;;;;5010929;28;20471;-78
2022/03/14 07:27:44;;;;;;;8.00;3.13;;;;;;;;;;5011462;28;20030;-78
2022/03/14 07:30:11;;;;;;;8.40;3.17;;;;;;;;;;5006608;28;20038;-77
2022/03/14 07:32:37;;;;;;;7.00;2.33;;;;;;;;;;4994218;28;20033;-78
2022/03/14 07:35:03;;;;;;;6.15;2.78;;;;;;;;;;5009639;28;20105;-78
2022/03/14 07:37:29;;;;;;;10.60;2.60;;;;;;;;;;4995486;28;20383;-72
2022/03/14 07:39:55;;;;;;;9.25;2.40;;;;;;;;;;5009202;28;20057;-72
2022/03/14 07:42:21;;;;;;;9.27;2.78;;;;;;;;;;5000277;28;20043;-71
2022/03/14 07:44:48;;;;;;;4.90;2.30;;;;;;;;;;5000982;28;21136;-71
2022/03/14 07:47:14;;;;;;;7.63;3.45;;;;;;;;;;5006738;28;20033;-70
2022/03/14 07:49:40;;;;;;;5.72;2.40;;;;;;;;;;5002872;28;20037;-70
2022/03/14 07:52:07;;;;;;;8.65;2.53;;;;;;;;;;4998084;28;20561;-70
2022/03/14 07:54:33;;;;;;;9.40;2.72;;;;;;;;;;4997271;28;21417;-70
2022/03/14 07:56:59;;;;;;;7.25;2.72;;;;;;;;;;4994864;28;20741;-70
2022/03/14 07:59:26;;;;;;;7.72;3.00;;;;;;;;;;5000740;28;20117;-70
2022/03/14 08:01:52;;;;;;;6.60;2.53;;;;;;;;;;4998314;28;20496;-70
2022/03/14 08:04:18;;;;;;;8.27;2.78;;;;;;;;;;5003107;28;20030;-70
2022/03/14 08:06:45;;;;;;;9.18;2.60;;;;;;;;;;5008575;28;20396;-70
2022/03/14 08:09:11;;;;;;;12.15;3.67;;;;;;;;;;5007540;28;20483;-70
2022/03/14 08:11:39;;;;;;;9.32;3.38;;;;;;;;;;5002658;28;20033;-70
2022/03/14 08:14:08;;;;;;;11.93;3.15;;;;;;;;;;5005749;28;20510;-70
2022/03/14 08:16:34;;;;;;;9.88;2.42;;;;;;;;;;5005004;28;20029;-70
2022/03/14 08:19:00;;;;;;;8.55;2.70;;;;;;;;;;5009601;28;20037;-70
2022/03/14 08:21:26;;;;;;;11.85;3.50;;;;;;;;;;5008938;28;20037;-70
2022/03/14 08:23:52;;;;;;;5.05;2.42;;;;;;;;;;5007605;28;20562;-71
2022/03/14 08:26:18;;;;;;;8.65;2.83;;;;;;;;;;5001383;28;20062;-70
2022/03/14 08:28:45;;;;;;;14.27;3.47;;;;;;;;;;4999610;28;20034;-70
2022/03/14 08:31:11;;;;;;;17.00;3.92;;;;;;;;;;5004803;28;20031;-71
2022/03/14 08:33:41;;;;;;;12.43;3.00;;;;;;;;;;5006129;28;20030;-71
2022/03/14 08:36:07;;;;;;;9.48;3.28;;;;;;;;;;5006427;28;20022;-71
2022/03/14 08:38:34;;;;;;;7.32;2.67;;;;;;;;;;5008253;28;20077;-70
2022/03/14 08:41:00;;;;;;;8.63;2.30;;;;;;;;;;5004999;28;20041;-72
2022/03/14 08:43:26;;;;;;;19.30;4.35;;;;;;;;;;5007706;28;20034;-71
2022/03/14 08:45:54;;;;;;;7.97;3.00;;;;;;;;;;5006326;28;20152;-72
2022/03/14 08:48:20;;;;;;;13.50;2.88;;;;;;;;;;5007497;28;20488;-71
2022/03/14 08:50:46;;;;;;;6.40;2.83;;;;;;;;;;5007496;28;20044;-71
2022/03/14 08:53:12;;;;;;;6.60;2.45;;;;;;;;;;5007690;28;20026;-72
2022/03/14 08:55:38;;;;;;;7.60;2.97;;;;;;;;;;5010166;28;20048;-72
2022/03/14 08:58:05;;;;;;;5.72;2.60;;;;;;;;;;5007309;28;20040;-72
2022/03/14 09:00:31;;;;;;;6.32;2.78;;;;;;;;;;5007146;28;20030;-72
2022/03/14 09:02:57;;;;;;;7.05;2.58;;;;;;;;;;5005988;28;20033;-71
2022/03/14 09:05:23;;;;;;;7.78;2.72;;;;;;;;;;4988170;28;20022;-72
2022/03/14 09:07:51;;;;;;;10.88;2.95;;;;;;;;;;5008048;28;20493;-73
2022/03/14 09:10:17;;;;;;;8.63;3.65;;;;;;;;;;5008906;28;20119;-72
2022/03/14 09:12:44;;;;;;;7.22;2.10;;;;;;;;;;4989220;28;20048;-70
2022/03/14 09:15:13;;;;;;;8.93;2.35;;;;;;;;;;5006061;28;20136;-72
2022/03/14 09:17:50;;;;;;;10.32;3.15;;;;;;;;;;5006400;28;20095;-71
2022/03/14 09:20:17;;;;;;;6.38;2.50;;;;;;;;;;4999345;28;20030;-72
2022/03/14 09:22:44;;;;;;;7.28;2.35;;;;;;;;;;4993965;28;20042;-73
2022/03/14 09:25:10;;;;;;;10.93;2.42;;;;;;;;;;5005468;28;20155;-71
2022/03/14 09:27:36;;;;;;;6.18;2.53;;;;;;;;;;5005250;28;20054;-72
2022/03/14 09:30:04;;;;;;;10.35;3.13;;;;;;;;;;5006453;28;20034;-71
2022/03/14 09:32:30;;;;;;;10.05;2.78;;;;;;;;;;5005441;28;20034;-72
2022/03/14 09:34:59;;;;;;;6.88;2.88;;;;;;;;;;5006029;28;20512;-72
2022/03/14 09:37:25;;;;;;;7.05;2.50;;;;;;;;;;4987529;28;20041;-71
2022/03/14 09:39:52;;;;;;;12.90;4.18;;;;;;;;;;5004216;28;20041;-71
2022/03/14 09:42:18;;;;;;;11.48;2.65;;;;;;;;;;5004303;28;20026;-71
2022/03/14 09:44:46;;;;;;;9.57;3.42;;;;;;;;;;4990276;28;20037;-71
2022/03/14 09:47:12;;;;;;;6.40;2.35;;;;;;;;;;4979727;28;20034;-72
2022/03/14 09:49:40;;;;;;;10.48;3.53;;;;;;;;;;5007934;28;20033;-71
2022/03/14 09:52:07;;;;;;;9.88;3.10;;;;;;;;;;5007118;28;20033;-70
2022/03/14 09:54:33;;;;;;;9.05;2.53;;;;;;;;;;4982665;28;20480;-71
2022/03/14 09:57:01;;;;;;;6.85;3.08;;;;;;;;;;4993238;28;20032;-70
2022/03/14 09:59:27;;;;;;;8.23;3.08;;;;;;;;;;5006105;28;20452;-71
2022/03/14 10:01:53;;;;;;;7.40;2.45;;;;;;;;;;5004459;28;20037;-71
2022/03/14 10:04:19;;;;;;;11.45;2.85;;;;;;;;;;5004622;28;20105;-71
2022/03/14 10:06:45;;;;;;;8.02;2.65;;;;;;;;;;4988026;28;20049;-71
2022/03/14 10:09:11;;;;;;;5.88;2.70;;;;;;;;;;5005262;28;20025;-71
2022/03/14 10:11:37;;;;;;;7.68;2.72;;;;;;;;;;5003937;28;20026;-71
2022/03/14 10:14:04;;;;;;;8.10;2.63;;;;;;;;;;5006412;28;20029;-71
2022/03/14 10:16:30;;;;;;;7.68;2.72;;;;;;;;;;5007545;28;20119;-72
2022/03/14 10:18:57;;;;;;;6.00;2.33;;;;;;;;;;5007688;28;20034;-72
2022/03/14 10:21:31;;;;;;;10.65;4.18;;;;;;;;;;4989589;28;20057;-70
2022/03/14 10:23:59;;;;;;;8.25;3.03;;;;;;;;;;5003998;28;20145;-70
2022/03/14 10:26:26;;;;;;;8.02;3.20;;;;;;;;;;4985371;28;20668;-71
2022/03/14 10:28:56;;;;;;;6.97;2.42;;;;;;;;;;5007388;28;20033;-72
2022/03/14 10:31:33;;;;;;;9.60;2.35;;;;;;;;;;5003634;28;20033;-70
2022/03/14 10:34:10;;;;;;;9.05;2.85;;;;;;;;;;5004185;28;20026;-71
2022/03/14 10:36:57;;;;;;;8.02;2.70;;;;;;;;;;5002067;28;20029;-70
2022/03/14 10:39:33;;;;;;;6.45;2.45;;;;;;;;;;5004456;28;20060;-71
2022/03/14 10:42:12;;;;;;;7.85;2.53;;;;;;;;;;5003399;28;20042;-70
2022/03/14 10:44:40;;;;;;;6.22;2.65;;;;;;;;;;5005735;28;20400;-71
2022/03/14 10:47:07;;;;;;;10.90;2.40;;;;;;;;;;5004040;28;20030;-71
2022/03/14 10:49:34;;;;;;;10.63;2.97;;;;;;;;;;5008473;28;20033;-71
2022/03/14 10:52:01;;;;;;;5.28;3.25;;;;;;;;;;5004020;28;20392;-71
2022/03/14 10:54:28;;;;;;;13.35;2.95;;;;;;;;;;5006612;28;20097;-71
2022/03/14 10:57:14;;;;;;;9.65;2.70;;;;;;;;;;5004771;28;20030;-71
2022/03/14 10:59:41;;;;;;;4.88;2.38;;;;;;;;;;5007359;28;20040;-72
2022/03/14 11:02:11;;;;;;;5.18;2.42;;;;;;;;;;5004729;28;20037;-71
2022/03/14 11:04:43;;;;;;;5.30;2.45;;;;;;;;;;5007493;28;20141;-71
2022/03/14 11:07:09;;;;;;;3.42;2.10;;;;;;;;;;5003845;28;20109;-71
2022/03/14 11:09:41;;;;;;;6.32;2.10;;;;;;;;;;5005603;28;20092;-72
2022/03/14 11:12:08;;;;;;;7.18;2.88;;;;;;;;;;5005020;28;20088;-70
2022/03/14 11:14:35;;;;;;;9.10;2.33;;;;;;;;;;5005604;28;20108;-72
2022/03/14 11:17:13;;;;;;;4.15;2.22;;;;;;;;;;5004371;28;20035;-72
2022/03/14 11:19:40;;;;;;;8.80;3.60;;;;;;;;;;5002090;28;20042;-71
2022/03/14 11:22:10;;;;;;;8.57;3.97;;;;;;;;;;5001041;28;20151;-71
2022/03/14 11:24:37;;;;;;;8.68;2.47;;;;;;;;;;5003818;28;20029;-71
2022/03/14 11:27:04;;;;;;;4.10;2.25;;;;;;;;;;5003473;28;20216;-71
2022/03/14 11:29:32;;;;;;;5.07;2.20;;;;;;;;;;5005413;28;20041;-71
2022/03/14 11:31:58;;;;;;;5.30;2.20;;;;;;;;;;5005962;28;20036;-71
2022/03/14 11:34:26;;;;;;;5.68;2.55;;;;;;;;;;5006206;28;20025;-72
2022/03/14 11:36:53;;;;;;;2.92;2.40;;;;;;;;;;5004539;28;20033;-70
2022/03/14 11:39:20;;;;;;;7.88;2.25;;;;;;;;;;5004340;28;20146;-71
2022/03/14 11:41:47;;;;;;;3.83;2.58;;;;;;;;;;5003061;28;20041;-72
2022/03/14 11:44:13;;;;;;;7.15;2.60;;;;;;;;;;5001806;28;20145;-71
2022/03/14 11:46:40;;;;;;;5.20;2.70;;;;;;;;;;5005373;28;20033;-70
2022/03/14 11:49:25;;;;;;;9.90;2.78;;;;;;;;;;5005156;28;20392;-71
2022/03/14 11:51:51;;;;;;;5.20;2.13;;;;;;;;;;5003732;28;20034;-71
2022/03/14 11:54:18;;;;;;;11.15;4.57;;;;;;;;;;5001691;28;20072;-71
2022/03/14 11:56:57;;;;;;;8.38;2.72;;;;;;;;;;5004595;28;20044;-72
2022/03/14 11:59:27;;;;;;;5.45;2.60;;;;;;;;;;5002802;28;20030;-72
2022/03/14 12:01:55;;;;;;;8.25;2.90;;;;;;;;;;5004941;28;20461;-71
2022/03/14 12:04:28;;;;;;;6.30;2.20;;;;;;;;;;5003696;28;20030;-71
2022/03/14 12:06:57;;;;;;;3.55;3.08;;;;;;;;;;4998026;28;20484;-71
2022/03/14 12:09:26;;;;;;;11.48;2.72;;;;;;;;;;4998088;28;20060;-71
2022/03/14 12:11:56;;;;;;;6.25;2.45;;;;;;;;;;4997311;28;20018;-71
2022/03/14 12:14:44;;;;;;;5.30;2.55;;;;;;;;;;4999439;28;20072;-73
2022/03/14 12:17:13;;;;;;;4.53;2.40;;;;;;;;;;5002910;28;20030;-71
2022/03/14 12:19:42;;;;;;;6.18;2.80;;;;;;;;;;5000933;28;20037;-71
2022/03/14 12:22:12;;;;;;;5.18;2.50;;;;;;;;;;5001756;28;20042;-71
2022/03/14 12:24:38;;;;;;;4.07;3.28;;;;;;;;;;5005249;28;20500;-71
2022/03/14 12:27:16;;;;;;;5.97;2.55;;;;;;;;;;5004972;28;20690;-71
2022/03/14 12:29:43;;;;;;;6.65;2.78;;;;;;;;;;5004676;28;20084;-71
2022/03/14 12:32:28;;;;;;;4.38;2.30;;;;;;;;;;5003635;28;20105;-71
2022/03/14 12:34:57;;;;;;;8.57;3.43;;;;;;;;;;5003431;28;20066;-72
2022/03/14 12:37:26;;;;;;;6.70;2.60;;;;;;;;;;5003365;28;20065;-71
2022/03/14 12:39:52;;;;;;;11.35;4.47;;;;;;;;;;5003204;28;20555;-71
2022/03/14 12:42:23;;;;;;;6.57;3.65;;;;;;;;;;5002566;28;20224;-72
2022/03/14 12:45:08;;;;;;;8.43;3.75;;;;;;;;;;5001073;28;20087;-73
2022/03/14 12:47:40;;;;;;;6.65;3.35;;;;;;;;;;4995423;28;20109;-72
2022/03/14 12:50:07;;;;;;;5.55;3.03;;;;;;;;;;4999710;28;20030;-71
2022/03/14 12:52:53;;;;;;;6.07;2.97;;;;;;;;;;5008056;28;20041;-72
2022/03/14 12:55:20;;;;;;;6.82;3.45;;;;;;;;;;4982441;28;20033;-71
2022/03/14 12:57:55;;;;;;;4.47;2.53;;;;;;;;;;5005984;28;20399;-71
2022/03/14 13:00:21;;;;;;;7.05;3.00;;;;;;;;;;5005837;28;20030;-72
2022/03/14 13:02:48;;;;;;;4.22;2.42;;;;;;;;;;4998902;28;20030;-72
2022/03/14 13:05:18;;;;;;;4.65;2.53;;;;;;;;;;4995475;28;20499;-72
2022/03/14 13:07:44;;;;;;;4.28;2.63;;;;;;;;;;5002074;28;20029;-71
2022/03/14 13:10:11;;;;;;;7.32;2.47;;;;;;;;;;4993742;28;20492;-71
2022/03/14 13:12:37;;;;;;;8.98;4.10;;;;;;;;;;4994470;28;20118;-73
2022/03/14 13:15:07;;;;;;;4.70;3.00;;;;;;;;;;4995050;28;20049;-72
2022/03/14 13:17:33;;;;;;;7.93;3.10;;;;;;;;;;4995877;28;20029;-72
2022/03/14 13:19:59;;;;;;;6.13;3.33;;;;;;;;;;5007913;28;20098;-71
2022/03/14 13:22:26;;;;;;;5.65;2.63;;;;;;;;;;5007714;28;20380;-71
2022/03/14 13:24:53;;;;;;;4.30;2.85;;;;;;;;;;5007754;28;20034;-71
2022/03/14 13:27:26;;;;;;;7.30;2.97;;;;;;;;;;4987147;28;20040;-72
2022/03/14 13:29:53;;;;;;;4.20;2.30;;;;;;;;;;4997778;28;20063;-71
2022/03/14 13:32:20;;;;;;;10.65;3.28;;;;;;;;;;4996399;28;20022;-71
2022/03/14 13:35:09;;;;;;;8.15;3.05;;;;;;;;;;4996560;28;20026;-71
2022/03/14 13:37:47;;;;;;;6.40;2.67;;;;;;;;;;4996089;28;20307;-73
2022/03/14 13:40:20;;;;;;;6.43;2.78;;;;;;;;;;4997083;28;20522;-71
2022/03/14 13:42:46;;;;;;;7.82;3.42;;;;;;;;;;4997748;28;20041;-71
2022/03/14 13:45:13;;;;;;;7.85;2.85;;;;;;;;;;4997692;28;20525;-71
2022/03/14 13:47:40;;;;;;;6.28;2.88;;;;;;;;;;4997213;28;20382;-71
2022/03/14 13:50:06;;;;;;;7.30;3.15;;;;;;;;;;4998037;28;20027;-71
2022/03/14 13:52:33;;;;;;;7.57;2.80;;;;;;;;;;4997252;28;20195;-72
2022/03/14 13:54:59;;;;;;;7.35;3.58;;;;;;;;;;4994855;28;20022;-72
2022/03/14 13:57:25;;;;;;;6.28;2.55;;;;;;;;;;4993434;28;20145;-71
2022/03/14 13:59:51;;;;;;;4.72;2.70;;;;;;;;;;4994552;28;20038;-70
2022/03/14 14:02:22;;;;;;;6.60;2.30;;;;;;;;;;5006527;28;20029;-71
2022/03/14 14:04:51;;;;;;;5.85;2.58;;;;;;;;;;5005169;28;20058;-71
2022/03/14 14:07:21;;;;;;;5.85;2.40;;;;;;;;;;5005086;28;20088;-71
2022/03/14 14:09:51;;;;;;;7.22;2.90;;;;;;;;;;5006570;28;20030;-72
2022/03/14 14:12:24;;;;;;;5.70;3.25;;;;;;;;;;5006043;28;20109;-71
2022/03/14 14:14:56;;;;;;;4.82;2.40;;;;;;;;;;5005412;28;20480;-71
2022/03/14 14:17:42;;;;;;;8.70;2.70;;;;;;;;;;5006219;28;20395;-72
2022/03/14 14:20:12;;;;;;;4.88;2.60;;;;;;;;;;5002859;28;20025;-72
2022/03/14 14:22:43;;;;;;;5.78;2.22;;;;;;;;;;4981458;28;20037;-71
2022/03/14 14:25:12;;;;;;;5.40;2.70;;;;;;;;;;5005668;28;20852;-72
2022/03/14 14:27:56;;;;;;;5.80;2.20;;;;;;;;;;5006080;28;20030;-72
2022/03/14 14:30:44;;;;;;;4.57;2.42;;;;;;;;;;5006185;28;20065;-71
2022/03/14 14:33:12;;;;;;;6.10;2.33;;;;;;;;;;5002842;28;20088;-71
2022/03/14 14:35:39;;;;;;;4.97;2.17;;;;;;;;;;5006164;28;20025;-72
2022/03/14 14:38:06;;;;;;;4.63;2.50;;;;;;;;;;5005597;28;20072;-71
2022/03/14 14:40:32;;;;;;;6.07;2.00;;;;;;;;;;5002793;28;20033;-71
2022/03/14 14:42:58;;;;;;;5.85;2.95;;;;;;;;;;5005774;28;20021;-71
2022/03/14 14:45:24;;;;;;;3.55;1.70;;;;;;;;;;5003132;28;20026;-72